Time;durP1;ratioP1;P1;durP2;ratioP2;P2;SDS_P1;SDS_P2;PMS_P1;PMS_P2;Temp;Humidity;BMP_temperature;BMP_pressure;BME280_temperature;BME280_humidity;BME280_pressure;Samples;Min_cycle;Max_cycle;Signal;HPM_P1;HPM_P2
2024/02/03 00:00:02;;;;;;;28.38;12.80;;;22.60;46.50;;;;;;10468157;28;20396;-46
2024/02/03 00:05:03;;;;;;;28.70;13.23;;;22.60;46.80;;;;;;10464540;28;20052;-45
2024/02/03 00:10:07;;;;;;;29.55;13.50;;;22.50;47.00;;;;;;10462328;28;20057;-50
2024/02/03 00:15:09;;;;;;;28.73;13.50;;;22.40;47.10;;;;;;10459608;28;20049;-46
2024/02/03 00:20:12;;;;;;;30.27;14.38;;;22.40;47.20;;;;;;10466839;28;20654;-46
2024/02/03 00:25:15;;;;;;;27.70;14.02;;;22.20;47.60;;;;;;10468232;28;20059;-50
2024/02/03 00:30:17;;;;;;;28.00;14.10;;;22.20;47.60;;;;;;10451019;28;20619;-45
2024/02/03 00:35:19;;;;;;;26.60;13.98;;;22.10;47.60;;;;;;10460607;28;20063;-45
2024/02/03 00:40:22;;;;;;;26.45;15.20;;;22.10;47.70;;;;;;10468108;28;20052;-48
2024/02/03 00:45:23;;;;;;;24.13;13.75;;;22.00;47.90;;;;;;10463660;28;20059;-50
2024/02/03 00:50:25;;;;;;;25.42;14.52;;;22.00;48.00;;;;;;10461607;28;20131;-46
2024/02/03 00:55:28;;;;;;;30.48;14.55;;;22.00;48.20;;;;;;10466274;28;20167;-44
2024/02/03 01:00:30;;;;;;;28.35;14.43;;;22.00;48.00;;;;;;10466510;28;20075;-46
2024/02/03 01:05:31;;;;;;;27.63;13.90;;;21.80;48.30;;;;;;10454051;28;20506;-52
2024/02/03 01:10:34;;;;;;;28.58;14.15;;;21.80;48.50;;;;;;10452881;28;20051;-47
2024/02/03 01:15:37;;;;;;;23.10;13.73;;;21.70;48.70;;;;;;10467915;28;20102;-45
2024/02/03 01:20:40;;;;;;;23.33;14.15;;;21.70;48.70;;;;;;10461234;28;20128;-46
2024/02/03 01:25:44;;;;;;;22.98;13.32;;;21.80;48.80;;;;;;10460497;28;20464;-45
2024/02/03 01:30:46;;;;;;;18.98;12.85;;;21.60;49.20;;;;;;10461843;28;20044;-42
2024/02/03 01:35:47;;;;;;;18.92;12.35;;;21.70;48.40;;;;;;10456438;28;20061;-45
2024/02/03 01:40:50;;;;;;;18.73;12.05;;;21.70;48.50;;;;;;10465342;28;20054;-47
2024/02/03 01:45:52;;;;;;;18.25;12.48;;;21.90;48.40;;;;;;10454594;28;20509;-48
2024/02/03 01:50:53;;;;;;;15.60;11.68;;;22.00;48.00;;;;;;10456331;28;20131;-47
2024/02/03 01:55:57;;;;;;;18.27;11.63;;;22.20;47.60;;;;;;10464141;28;20040;-43
2024/02/03 02:00:58;;;;;;;17.83;12.43;;;22.20;47.60;;;;;;10461198;28;20070;-44
2024/02/03 02:06:00;;;;;;;16.58;11.63;;;22.20;47.60;;;;;;10458079;28;20045;-50
2024/02/03 02:11:03;;;;;;;16.48;12.18;;;22.20;47.80;;;;;;10462406;28;20045;-43
2024/02/03 02:16:06;;;;;;;17.83;12.27;;;22.10;47.70;;;;;;10461127;28;20095;-44
2024/02/03 02:21:09;;;;;;;17.10;11.77;;;22.10;47.60;;;;;;10455517;28;20129;-43
2024/02/03 02:26:10;;;;;;;16.48;11.93;;;22.20;47.60;;;;;;10444277;28;20049;-49
2024/02/03 02:31:12;;;;;;;14.48;11.48;;;22.20;47.60;;;;;;10459936;28;20041;-43
2024/02/03 02:36:15;;;;;;;13.63;11.13;;;22.10;48.00;;;;;;10461460;28;20047;-47
2024/02/03 02:41:16;;;;;;;16.30;11.48;;;22.20;47.80;;;;;;10458707;28;20502;-42
2024/02/03 02:46:25;;;;;;;16.45;11.13;;;22.20;48.10;;;;;;10455631;28;20083;-53
2024/02/03 02:51:28;;;;;;;13.93;10.88;;;22.20;48.00;;;;;;10455912;28;20048;-45
2024/02/03 02:56:30;;;;;;;15.25;11.10;;;22.20;48.20;;;;;;10458224;28;20053;-44
2024/02/03 03:01:31;;;;;;;12.38;10.45;;;22.10;48.10;;;;;;10447628;28;20045;-45
2024/02/03 03:06:34;;;;;;;15.98;11.52;;;22.30;47.70;;;;;;10455123;28;20115;-47
2024/02/03 03:11:37;;;;;;;14.95;10.82;;;22.30;47.70;;;;;;10464271;28;20052;-50
2024/02/03 03:16:38;;;;;;;19.85;11.48;;;22.20;48.20;;;;;;10471036;28;20049;-46
2024/02/03 03:21:41;;;;;;;14.88;10.48;;;22.30;47.80;;;;;;10466462;28;20044;-49
2024/02/03 03:26:43;;;;;;;12.63;10.15;;;22.30;48.10;;;;;;10466666;28;20128;-45
2024/02/03 03:31:44;;;;;;;16.40;10.85;;;22.30;48.00;;;;;;10467606;28;20053;-46
2024/02/03 03:36:47;;;;;;;12.55;10.23;;;22.20;48.00;;;;;;10462342;28;20517;-52
2024/02/03 03:41:49;;;;;;;14.32;10.50;;;22.30;47.80;;;;;;10456409;28;20071;-43
2024/02/03 03:46:50;;;;;;;13.57;10.43;;;22.30;47.80;;;;;;10465054;28;20052;-50
2024/02/03 03:51:53;;;;;;;12.45;10.07;;;22.30;47.70;;;;;;10465248;28;20055;-45
2024/02/03 03:56:55;;;;;;;13.98;10.48;;;22.30;47.90;;;;;;10466898;28;20045;-47
2024/02/03 04:01:57;;;;;;;13.10;10.05;;;22.20;48.10;;;;;;10461404;28;20510;-49
2024/02/03 04:07:00;;;;;;;13.30;10.18;;;22.10;48.30;;;;;;10454483;28;20095;-45
2024/02/03 04:12:01;;;;;;;13.43;9.77;;;22.50;47.60;;;;;;10464582;28;20136;-58
2024/02/03 04:17:03;;;;;;;14.98;9.13;;;22.70;47.00;;;;;;10460350;28;20537;-45
2024/02/03 04:22:07;;;;;;;11.02;9.45;;;22.80;47.00;;;;;;10455445;28;20942;-47
2024/02/03 04:27:09;;;;;;;13.32;9.80;;;22.90;47.00;;;;;;10470230;28;20151;-45
2024/02/03 04:32:12;;;;;;;15.32;10.93;;;22.90;47.10;;;;;;10463209;28;20043;-46
2024/02/03 04:37:15;;;;;;;11.70;9.52;;;23.00;47.00;;;;;;10462990;28;20049;-45
2024/02/03 04:42:16;;;;;;;12.65;9.75;;;23.10;46.90;;;;;;10461050;28;20033;-52
2024/02/03 04:47:18;;;;;;;12.18;9.82;;;23.10;46.90;;;;;;10460373;28;20080;-52
2024/02/03 04:52:21;;;;;;;11.32;9.60;;;23.20;47.50;;;;;;10455993;28;20040;-54
2024/02/03 04:57:23;;;;;;;13.60;10.23;;;22.90;48.00;;;;;;10458902;28;20509;-49
2024/02/03 05:02:25;;;;;;;12.30;9.38;;;22.80;48.20;;;;;;10460757;28;20063;-51
2024/02/03 05:07:28;;;;;;;11.80;9.48;;;22.90;48.00;;;;;;10467742;28;20055;-51
2024/02/03 05:12:31;;;;;;;11.20;8.77;;;23.00;47.90;;;;;;10461061;28;20785;-54
2024/02/03 05:17:32;;;;;;;10.60;8.90;;;23.00;47.60;;;;;;10462350;28;20052;-53
2024/02/03 05:22:35;;;;;;;10.43;7.82;;;23.00;47.60;;;;;;10451773;28;20077;-57
2024/02/03 05:27:37;;;;;;;9.40;8.05;;;22.90;48.00;;;;;;10464114;28;20132;-53
2024/02/03 05:32:39;;;;;;;11.20;8.00;;;22.80;48.20;;;;;;10456245;28;20533;-49
2024/02/03 05:37:41;;;;;;;11.38;7.82;;;22.90;48.00;;;;;;10450732;28;20051;-54
2024/02/03 05:42:43;;;;;;;9.88;7.85;;;22.80;48.10;;;;;;10456097;28;20081;-52
2024/02/03 05:47:45;;;;;;;8.98;7.18;;;22.90;48.10;;;;;;10466509;28;20053;-53
2024/02/03 05:52:48;;;;;;;7.70;6.68;;;22.90;48.00;;;;;;10457990;28;20505;-52
2024/02/03 05:57:50;;;;;;;7.68;6.70;;;22.90;48.00;;;;;;10452105;28;20045;-51
2024/02/03 06:02:52;;;;;;;9.25;6.90;;;22.90;48.10;;;;;;10456734;28;20415;-53
2024/02/03 06:07:55;;;;;;;9.52;6.30;;;23.00;48.00;;;;;;10454615;28;20056;-52
2024/02/03 06:12:56;;;;;;;8.13;5.80;;;23.10;48.40;;;;;;10450298;28;20055;-52
2024/02/03 06:17:58;;;;;;;8.80;6.03;;;23.00;48.70;;;;;;10457775;28;20040;-51
2024/02/03 06:23:01;;;;;;;8.95;6.03;;;23.00;48.70;;;;;;10461410;28;20037;-51
2024/02/03 06:28:02;;;;;;;11.32;5.78;;;23.10;48.10;;;;;;10458285;28;20478;-53
2024/02/03 06:33:04;;;;;;;12.75;6.13;;;23.10;48.10;;;;;;10456596;28;20039;-50
2024/02/03 06:38:07;;;;;;;12.88;5.90;;;23.10;48.00;;;;;;10453232;28;20052;-49
2024/02/03 06:43:09;;;;;;;9.45;5.53;;;23.20;48.50;;;;;;10457986;28;20055;-51
2024/02/03 06:48:11;;;;;;;9.48;5.28;;;23.30;48.20;;;;;;10454567;28;20055;-52
2024/02/03 06:53:14;;;;;;;7.57;4.80;;;23.30;49.00;;;;;;10456610;28;20049;-48
2024/02/03 06:58:15;;;;;;;5.53;4.55;;;23.40;49.40;;;;;;10457270;28;20040;-45
2024/02/03 07:03:17;;;;;;;7.55;4.53;;;23.20;50.20;;;;;;10463414;28;20040;-49
2024/02/03 07:08:20;;;;;;;6.85;5.10;;;23.30;50.50;;;;;;10458246;28;20045;-48
2024/02/03 07:13:22;;;;;;;11.20;4.80;;;23.20;50.70;;;;;;10452005;28;20047;-48
2024/02/03 07:18:24;;;;;;;8.38;4.72;;;23.20;50.90;;;;;;10452485;28;20410;-48
2024/02/03 07:23:27;;;;;;;8.80;4.50;;;23.20;51.20;;;;;;10450747;28;20517;-47
2024/02/03 07:28:28;;;;;;;12.65;5.30;;;23.20;51.60;;;;;;10455407;28;20041;-45
2024/02/03 07:33:30;;;;;;;10.85;4.90;;;23.20;54.10;;;;;;10454289;28;20044;-49
2024/02/03 07:38:33;;;;;;;19.92;5.25;;;23.10;56.40;;;;;;10454929;28;20498;-46
2024/02/03 07:43:34;;;;;;;14.38;4.05;;;23.20;57.50;;;;;;10457430;28;20041;-50
2024/02/03 07:48:36;;;;;;;12.75;3.10;;;23.20;55.50;;;;;;10460882;28;20051;-50
2024/02/03 07:53:39;;;;;;;10.88;2.85;;;23.20;54.50;;;;;;10448906;28;20041;-55
2024/02/03 07:58:41;;;;;;;7.57;2.25;;;23.30;51.90;;;;;;10455489;28;20075;-48
2024/02/03 08:03:43;;;;;;;8.05;2.10;;;23.40;49.40;;;;;;10452885;28;20049;-46
2024/02/03 08:08:45;;;;;;;6.45;2.28;;;23.50;49.30;;;;;;10457705;28;20053;-49
2024/02/03 08:13:47;;;;;;;7.43;2.03;;;23.60;48.80;;;;;;10462411;28;20687;-44
2024/02/03 08:18:49;;;;;;;7.07;2.20;;;23.60;49.00;;;;;;10469086;28;20149;-51
2024/02/03 08:23:52;;;;;;;9.15;2.38;;;23.60;49.20;;;;;;10459117;28;20052;-47
2024/02/03 08:28:53;;;;;;;7.50;2.03;;;23.60;49.00;;;;;;10453753;28;20133;-48
2024/02/03 08:33:55;;;;;;;7.07;2.13;;;23.70;48.90;;;;;;10451585;28;20078;-44
2024/02/03 08:38:58;;;;;;;8.77;2.25;;;23.60;48.90;;;;;;10453829;28;20049;-52
2024/02/03 08:43:59;;;;;;;9.07;2.42;;;23.60;49.40;;;;;;10460115;28;20503;-47
2024/02/03 08:49:01;;;;;;;8.68;2.25;;;23.80;49.90;;;;;;10459610;28;20045;-50
2024/02/03 08:54:04;;;;;;;11.23;1.92;;;23.80;50.00;;;;;;10463626;28;20135;-48
2024/02/03 08:59:07;;;;;;;9.13;2.92;;;23.80;50.00;;;;;;10471122;28;20049;-45
2024/02/03 09:04:10;;;;;;;6.53;2.28;;;23.90;49.90;;;;;;10468500;28;21266;-47
2024/02/03 09:09:13;;;;;;;12.05;2.53;;;24.00;50.10;;;;;;10447861;28;20091;-45
2024/02/03 09:14:15;;;;;;;6.55;2.20;;;24.00;49.60;;;;;;10457707;28;20049;-50
2024/02/03 09:19:16;;;;;;;6.28;2.40;;;24.00;49.70;;;;;;10452098;28;20600;-48
2024/02/03 09:24:19;;;;;;;7.30;2.50;;;24.20;49.40;;;;;;10452911;28;20049;-45
2024/02/03 09:29:21;;;;;;;6.07;2.20;;;24.10;49.50;;;;;;10458931;28;20518;-45
2024/02/03 09:34:22;;;;;;;6.20;2.22;;;24.10;49.50;;;;;;10470000;28;20037;-44
2024/02/03 09:39:25;;;;;;;4.75;2.22;;;24.20;49.50;;;;;;10458551;28;20045;-45
2024/02/03 09:44:27;;;;;;;5.25;2.20;;;24.30;49.40;;;;;;10451423;28;20129;-45
2024/02/03 09:49:29;;;;;;;4.50;2.08;;;24.20;49.20;;;;;;10450677;28;20423;-45
2024/02/03 09:54:32;;;;;;;5.22;2.10;;;24.20;49.20;;;;;;10456031;28;20056;-45
2024/02/03 09:59:33;;;;;;;4.32;1.90;;;24.30;49.00;;;;;;10454670;28;20058;-44
2024/02/03 10:04:38;;;;;;;8.63;2.40;;;24.30;48.70;;;;;;10456013;28;20079;-48
2024/02/03 10:09:41;;;;;;;16.83;2.38;;;24.40;48.20;;;;;;10457647;28;20341;-47
2024/02/03 10:14:43;;;;;;;8.15;2.25;;;24.30;48.30;;;;;;10471421;28;20131;-54
2024/02/03 10:19:44;;;;;;;6.05;1.98;;;24.30;48.70;;;;;;10457569;28;20139;-57
2024/02/03 10:24:47;;;;;;;7.50;2.50;;;24.50;48.50;;;;;;10450176;28;20044;-44
2024/02/03 10:29:53;;;;;;;12.02;2.40;;;24.30;49.00;;;;;;10456936;28;20143;-43
2024/02/03 10:34:55;;;;;;;28.13;2.78;;;24.10;50.00;;;;;;10455075;28;20127;-52
2024/02/03 10:39:58;;;;;;;10.63;2.30;;;24.00;50.80;;;;;;10450416;28;20040;-44
2024/02/03 10:45:00;;;;;;;9.35;2.47;;;24.30;49.30;;;;;;10459833;28;20075;-52
2024/02/03 10:50:04;;;;;;;19.30;2.90;;;24.20;49.70;;;;;;10456242;28;20072;-51
2024/02/03 10:55:07;;;;;;;11.75;2.55;;;24.30;49.50;;;;;;10456240;28;20060;-44
2024/02/03 11:00:10;;;;;;;11.57;2.05;;;24.30;49.50;;;;;;10452855;28;20594;-45
2024/02/03 11:05:12;;;;;;;11.98;2.20;;;24.50;48.80;;;;;;10448677;28;20099;-43
2024/02/03 11:10:15;;;;;;;10.00;2.22;;;24.40;48.50;;;;;;10451900;28;20073;-47
2024/02/03 11:15:17;;;;;;;7.68;1.80;;;24.40;48.50;;;;;;10451312;28;20052;-50
2024/02/03 11:20:19;;;;;;;7.25;2.13;;;24.50;48.40;;;;;;10459064;28;20140;-43
2024/02/03 11:25:22;;;;;;;8.85;1.80;;;24.40;48.50;;;;;;10460990;28;20480;-45
2024/02/03 11:30:24;;;;;;;4.32;1.60;;;24.40;48.30;;;;;;10459588;28;20049;-48
2024/02/03 11:35:25;;;;;;;5.63;1.65;;;24.30;48.40;;;;;;10457282;28;20071;-52
2024/02/03 11:40:28;;;;;;;3.13;1.58;;;24.40;48.30;;;;;;10451525;28;20051;-50
2024/02/03 11:45:30;;;;;;;4.03;1.75;;;24.40;48.40;;;;;;10457432;28;20136;-50
2024/02/03 11:50:32;;;;;;;3.28;1.63;;;24.40;48.30;;;;;;10458102;28;20565;-51
2024/02/03 11:55:35;;;;;;;4.60;1.60;;;24.30;48.30;;;;;;10464020;28;20127;-49
2024/02/03 12:00:36;;;;;;;6.60;2.08;;;24.40;48.20;;;;;;10465155;28;20133;-54
2024/02/03 12:05:38;;;;;;;7.50;1.90;;;24.40;48.10;;;;;;10468377;28;20128;-50
2024/02/03 12:10:41;;;;;;;5.53;1.92;;;24.30;48.30;;;;;;10457523;28;20041;-49
2024/02/03 12:15:44;;;;;;;8.50;1.70;;;24.40;48.20;;;;;;10454244;28;20509;-50
2024/02/03 12:20:45;;;;;;;11.70;1.92;;;24.10;49.60;;;;;;10453432;28;20582;-51
2024/02/03 12:25:48;;;;;;;8.30;2.00;;;24.30;49.30;;;;;;10456416;28;20136;-45
2024/02/03 12:31:00;;;;;;;9.27;1.95;;;24.40;48.80;;;;;;10460786;28;20056;-46
2024/02/03 12:36:02;;;;;;;12.07;1.90;;;24.40;49.10;;;;;;10459120;28;20088;-45
2024/02/03 12:41:06;;;;;;;6.40;1.85;;;24.50;48.80;;;;;;10466985;28;20057;-45
2024/02/03 12:46:07;;;;;;;4.40;1.73;;;24.40;46.50;;;;;;10456699;28;20106;-48
2024/02/03 12:51:09;;;;;;;7.60;2.03;;;24.60;45.50;;;;;;10461723;28;20144;-49
2024/02/03 12:56:12;;;;;;;4.68;1.63;;;24.70;45.10;;;;;;10447247;28;20045;-45
2024/02/03 13:01:14;;;;;;;5.63;1.67;;;24.80;44.40;;;;;;10458952;28;20045;-52
2024/02/03 13:06:16;;;;;;;5.35;1.77;;;24.60;44.50;;;;;;10457816;28;20045;-49
2024/02/03 13:11:19;;;;;;;4.97;2.00;;;24.60;44.30;;;;;;10460236;28;20565;-50
2024/02/03 13:16:21;;;;;;;4.32;1.42;;;24.70;44.00;;;;;;10467291;28;20051;-51
2024/02/03 13:21:23;;;;;;;4.65;1.77;;;24.50;44.20;;;;;;10474840;28;20041;-52
2024/02/03 13:26:26;;;;;;;5.30;1.73;;;24.60;44.00;;;;;;10454698;28;20442;-51
2024/02/03 13:31:27;;;;;;;4.63;1.50;;;24.70;43.40;;;;;;10451857;28;20044;-51
2024/02/03 13:36:29;;;;;;;5.47;1.40;;;24.70;43.20;;;;;;10447966;28;20044;-50
2024/02/03 13:41:32;;;;;;;3.13;1.40;;;24.60;43.50;;;;;;10454676;28;20764;-51
2024/02/03 13:46:33;;;;;;;3.75;1.73;;;24.60;43.50;;;;;;10458408;28;20044;-47
2024/02/03 13:51:35;;;;;;;3.72;1.70;;;24.60;43.40;;;;;;10462149;28;20047;-51
2024/02/03 13:56:38;;;;;;;4.47;1.60;;;24.40;43.50;;;;;;10466400;28;20048;-47
2024/02/03 14:01:39;;;;;;;5.28;1.70;;;24.70;43.20;;;;;;10449106;28;20051;-49
2024/02/03 14:06:41;;;;;;;3.85;1.75;;;24.60;42.90;;;;;;10454752;28;20135;-45
2024/02/03 14:11:44;;;;;;;6.07;1.58;;;24.50;43.20;;;;;;10446133;28;20136;-48
2024/02/03 14:16:46;;;;;;;2.95;1.50;;;24.70;42.90;;;;;;10450948;28;20041;-48
2024/02/03 14:21:48;;;;;;;4.30;1.58;;;24.60;42.80;;;;;;10455214;28;20048;-49
2024/02/03 14:26:51;;;;;;;3.85;1.40;;;24.60;43.30;;;;;;10456506;28;20122;-52
2024/02/03 14:31:52;;;;;;;3.28;1.63;;;24.70;42.50;;;;;;10461946;28;20131;-53
2024/02/03 14:36:54;;;;;;;5.20;1.73;;;24.50;42.70;;;;;;10459022;28;20049;-49
2024/02/03 14:41:57;;;;;;;4.03;1.55;;;24.50;42.80;;;;;;10451063;28;20507;-50
2024/02/03 14:46:58;;;;;;;4.75;1.80;;;24.40;42.90;;;;;;10446059;28;20135;-53
2024/02/03 14:52:00;;;;;;;5.28;1.88;;;24.60;42.40;;;;;;10448159;28;20045;-50
2024/02/03 14:57:05;;;;;;;3.53;1.60;;;24.60;42.30;;;;;;10451430;28;20053;-50
2024/02/03 15:02:07;;;;;;;3.45;1.60;;;24.50;42.10;;;;;;10421982;28;1033755;-52
2024/02/03 15:07:08;;;;;;;3.92;1.50;;;24.60;41.80;;;;;;10462900;28;20442;-50
2024/02/03 15:12:11;;;;;;;4.07;1.75;;;24.50;42.20;;;;;;10474683;28;20057;-50
2024/02/03 15:17:19;;;;;;;3.97;1.60;;;24.50;42.00;;;;;;10460927;28;20059;-50
2024/02/03 15:22:21;;;;;;;3.80;1.75;;;24.60;42.00;;;;;;10471279;28;20483;-50
2024/02/03 15:27:24;;;;;;;4.10;1.77;;;24.70;41.60;;;;;;10454707;28;20143;-48
2024/02/03 15:32:25;;;;;;;4.93;1.80;;;24.50;41.70;;;;;;10456690;28;20051;-52
2024/02/03 15:37:27;;;;;;;3.95;1.58;;;24.50;41.90;;;;;;10465658;28;20822;-52
2024/02/03 15:42:30;;;;;;;5.25;1.98;;;24.60;41.60;;;;;;10471340;28;20044;-51
2024/02/03 15:47:31;;;;;;;3.90;1.75;;;24.50;41.80;;;;;;10467368;28;20072;-49
2024/02/03 15:52:33;;;;;;;5.03;2.03;;;24.50;41.80;;;;;;10460971;28;20123;-50
2024/02/03 15:57:36;;;;;;;5.47;2.00;;;24.50;41.70;;;;;;10463646;28;20636;-51
2024/02/03 16:02:38;;;;;;;4.45;2.00;;;24.60;41.30;;;;;;10460335;28;20131;-47
2024/02/03 16:07:40;;;;;;;4.88;1.83;;;24.60;41.10;;;;;;10452504;28;20095;-48
2024/02/03 16:12:43;;;;;;;5.70;1.92;;;24.50;41.10;;;;;;10460374;28;20414;-50
2024/02/03 16:17:45;;;;;;;4.95;1.85;;;24.40;41.30;;;;;;10470259;28;20127;-51
2024/02/03 16:22:47;;;;;;;5.72;1.55;;;24.40;41.10;;;;;;10468042;28;20131;-49
2024/02/03 16:27:49;;;;;;;4.72;1.77;;;24.40;41.30;;;;;;10468634;28;20594;-48
2024/02/03 16:32:51;;;;;;;5.70;2.15;;;24.50;41.10;;;;;;10452118;28;20141;-49
2024/02/03 16:37:53;;;;;;;4.75;1.80;;;24.50;41.20;;;;;;10468748;28;20051;-47
2024/02/03 16:42:56;;;;;;;5.13;1.95;;;24.50;41.20;;;;;;10448046;28;20091;-47
2024/02/03 16:47:57;;;;;;;2.92;1.60;;;24.50;41.10;;;;;;10458862;28;20128;-48
2024/02/03 16:52:59;;;;;;;5.53;1.60;;;24.60;40.60;;;;;;10465641;28;20057;-49
2024/02/03 16:58:02;;;;;;;6.40;1.83;;;24.40;41.00;;;;;;10467590;28;20073;-49
2024/02/03 17:03:05;;;;;;;4.35;1.90;;;24.40;41.10;;;;;;10464398;28;20476;-49
2024/02/03 17:08:08;;;;;;;6.28;1.85;;;24.50;40.60;;;;;;10456012;28;20049;-49
2024/02/03 17:13:11;;;;;;;4.40;1.70;;;24.60;40.60;;;;;;10461295;28;20049;-51
2024/02/03 17:18:13;;;;;;;8.63;2.40;;;24.40;40.70;;;;;;10457634;28;20056;-49
2024/02/03 17:23:14;;;;;;;13.25;2.50;;;24.00;42.20;;;;;;10458890;28;20048;-55
2024/02/03 17:28:18;;;;;;;7.05;1.90;;;24.00;43.20;;;;;;10464813;28;20049;-50
2024/02/03 17:33:20;;;;;;;11.52;2.50;;;24.30;43.10;;;;;;10466082;28;20049;-51
2024/02/03 17:38:21;;;;;;;12.50;2.63;;;24.50;43.10;;;;;;10463813;28;20049;-48
2024/02/03 17:43:24;;;;;;;17.33;3.20;;;24.30;44.00;;;;;;10465165;28;20460;-50
2024/02/03 17:48:26;;;;;;;20.58;3.53;;;24.30;44.70;;;;;;10444396;28;20048;-51
2024/02/03 17:53:28;;;;;;;17.73;3.28;;;24.30;45.10;;;;;;10462028;28;20045;-53
2024/02/03 17:58:31;;;;;;;21.35;4.20;;;24.60;45.20;;;;;;10455721;28;20044;-52
2024/02/03 18:03:34;;;;;;;29.70;3.75;;;24.70;45.40;;;;;;10456604;28;20070;-53
2024/02/03 18:08:35;;;;;;;26.75;4.55;;;24.40;46.70;;;;;;10463135;28;20049;-51
2024/02/03 18:13:38;;;;;;;23.15;3.83;;;24.30;47.80;;;;;;10463412;28;20052;-51
2024/02/03 18:18:40;;;;;;;17.85;3.88;;;24.30;48.10;;;;;;10458591;28;20409;-55
2024/02/03 18:23:42;;;;;;;16.15;3.58;;;24.30;47.60;;;;;;10453584;28;20045;-52
2024/02/03 18:28:45;;;;;;;24.02;3.42;;;24.50;46.50;;;;;;10452763;28;20049;-50
2024/02/03 18:33:46;;;;;;;18.90;3.22;;;24.50;47.10;;;;;;10454944;28;20513;-53
2024/02/03 18:38:48;;;;;;;25.73;3.53;;;24.40;49.50;;;;;;10452917;28;20052;-52
2024/02/03 18:43:51;;;;;;;19.08;3.35;;;24.60;46.70;;;;;;10455412;28;20140;-50
2024/02/03 18:48:52;;;;;;;14.30;3.08;;;24.70;45.00;;;;;;10460494;28;20063;-51
2024/02/03 18:53:54;;;;;;;8.88;2.72;;;24.60;41.50;;;;;;10461851;28;20124;-51
2024/02/03 18:58:57;;;;;;;14.50;3.53;;;24.60;39.70;;;;;;10452777;28;20041;-55
2024/02/03 19:03:58;;;;;;;14.00;2.97;;;24.60;39.80;;;;;;10446233;28;20141;-54
2024/02/03 19:09:00;;;;;;;12.88;2.70;;;24.60;39.00;;;;;;10455554;28;20056;-58
2024/02/03 19:14:04;;;;;;;10.82;3.03;;;24.60;40.10;;;;;;10453254;28;20047;-53
2024/02/03 19:19:05;;;;;;;11.27;2.90;;;24.60;39.90;;;;;;10459723;28;20136;-55
2024/02/03 19:30:06;;;;;;;8.80;2.88;;;24.70;38.40;;;;;;10430835;28;20036;-55
2024/02/03 19:35:09;;;;;;;13.90;3.10;;;24.60;37.20;;;;;;10455506;28;20048;-57
2024/02/03 19:40:12;;;;;;;15.85;3.15;;;24.40;38.00;;;;;;10444947;28;20049;-51
2024/02/03 19:45:15;;;;;;;19.52;3.45;;;24.40;37.50;;;;;;10450029;28;20047;-52
2024/02/03 19:50:16;;;;;;;12.82;3.10;;;24.60;37.70;;;;;;10455034;28;20502;-52
2024/02/03 19:55:18;;;;;;;11.68;2.67;;;24.60;37.80;;;;;;10459178;28;20048;-63
2024/02/03 20:00:24;;;;;;;12.93;3.00;;;24.70;38.10;;;;;;10454169;28;20047;-55
2024/02/03 20:05:26;;;;;;;10.95;2.75;;;24.80;38.80;;;;;;10460360;28;20099;-54
2024/02/03 20:10:28;;;;;;;11.23;2.88;;;24.60;39.50;;;;;;10464512;28;20562;-53
2024/02/03 20:15:31;;;;;;;10.68;2.70;;;24.60;39.90;;;;;;10458189;28;20040;-54
2024/02/03 20:20:33;;;;;;;8.23;2.28;;;24.50;40.10;;;;;;10458969;28;20053;-51
2024/02/03 20:25:34;;;;;;;13.35;2.58;;;24.40;40.40;;;;;;10454693;28;20144;-51
2024/02/03 20:30:37;;;;;;;13.05;2.50;;;24.30;40.50;;;;;;10465135;28;20486;-51
2024/02/03 20:35:39;;;;;;;11.57;2.38;;;24.30;40.70;;;;;;10465474;28;20137;-52
2024/02/03 20:40:41;;;;;;;9.25;2.22;;;24.20;40.80;;;;;;10458042;28;20068;-51
2024/02/03 20:45:45;;;;;;;7.03;2.15;;;24.10;41.00;;;;;;10464313;28;20185;-54
2024/02/03 20:50:47;;;;;;;9.18;2.30;;;24.00;41.10;;;;;;10460946;28;20696;-57
2024/02/03 20:55:49;;;;;;;11.60;2.20;;;24.00;41.40;;;;;;10454928;28;20131;-48
2024/02/03 21:00:52;;;;;;;6.78;2.20;;;23.80;41.60;;;;;;10454374;28;20498;-53
2024/02/03 21:05:54;;;;;;;8.85;2.60;;;23.60;41.80;;;;;;10455135;28;20136;-49
2024/02/03 21:10:56;;;;;;;6.97;2.33;;;23.60;42.30;;;;;;10464946;28;20660;-51
2024/02/03 21:15:59;;;;;;;6.43;2.10;;;23.50;42.00;;;;;;10460243;28;20569;-53
2024/02/03 21:21:00;;;;;;;9.80;1.95;;;23.50;42.00;;;;;;10460501;28;20071;-46
2024/02/03 21:26:02;;;;;;;4.45;1.77;;;23.50;42.20;;;;;;10462750;28;20144;-59
2024/02/03 21:31:05;;;;;;;8.98;2.17;;;23.40;42.30;;;;;;10462084;28;20091;-46
2024/02/03 21:36:07;;;;;;;6.82;2.03;;;23.30;42.60;;;;;;10453031;28;20067;-48
2024/02/03 21:41:08;;;;;;;10.20;2.33;;;23.40;43.00;;;;;;10455239;28;20533;-48
2024/02/03 21:46:14;;;;;;;8.65;2.05;;;23.30;43.00;;;;;;10460894;28;20098;-49
2024/02/03 21:51:16;;;;;;;10.05;2.00;;;23.20;43.40;;;;;;10458441;28;20049;-54
2024/02/03 21:56:18;;;;;;;7.50;1.88;;;23.30;43.50;;;;;;10458045;28;20410;-50
2024/02/03 22:01:21;;;;;;;8.63;1.88;;;23.20;44.00;;;;;;10463281;28;20128;-51
2024/02/03 22:06:23;;;;;;;12.63;2.20;;;23.10;44.50;;;;;;10455503;28;20037;-49
2024/02/03 22:11:25;;;;;;;13.82;2.50;;;23.10;44.60;;;;;;10456320;28;20052;-50
2024/02/03 22:16:28;;;;;;;13.18;2.42;;;23.10;44.80;;;;;;10450378;28;20144;-51
2024/02/03 22:21:30;;;;;;;7.40;1.95;;;23.20;44.50;;;;;;10457876;28;20045;-50
2024/02/03 22:26:32;;;;;;;7.38;2.30;;;23.10;44.60;;;;;;10460240;28;20044;-50
2024/02/03 22:31:34;;;;;;;10.77;2.30;;;23.10;44.30;;;;;;10459565;28;20133;-51
2024/02/03 22:36:36;;;;;;;11.48;2.30;;;23.10;44.40;;;;;;10458708;28;20131;-50
2024/02/03 22:41:38;;;;;;;11.43;2.28;;;23.00;44.30;;;;;;10455196;28;20055;-53
2024/02/03 22:46:41;;;;;;;9.63;2.40;;;23.10;44.00;;;;;;10460037;28;20041;-48
2024/02/03 22:51:43;;;;;;;12.00;2.08;;;23.20;43.80;;;;;;10451878;28;20575;-52
2024/02/03 22:56:46;;;;;;;7.82;1.85;;;23.20;43.50;;;;;;10455102;28;20110;-54
2024/02/03 23:01:49;;;;;;;12.30;2.38;;;23.10;43.60;;;;;;10454852;28;20045;-55
2024/02/03 23:06:51;;;;;;;10.20;2.03;;;23.10;43.50;;;;;;10457644;28;20524;-49
2024/02/03 23:11:53;;;;;;;7.07;1.80;;;23.10;43.40;;;;;;10454205;28;20119;-56
2024/02/03 23:16:56;;;;;;;8.82;2.42;;;23.00;43.40;;;;;;10460005;28;20136;-53
2024/02/03 23:21:57;;;;;;;5.43;1.85;;;23.10;43.40;;;;;;10457256;28;20055;-56
2024/02/03 23:26:59;;;;;;;6.05;1.73;;;23.00;43.40;;;;;;10452713;28;20052;-55
2024/02/03 23:32:02;;;;;;;11.60;2.17;;;22.90;43.40;;;;;;10456917;28;20140;-53
2024/02/03 23:37:04;;;;;;;4.18;1.65;;;23.00;43.20;;;;;;10461646;28;20052;-53
2024/02/03 23:42:06;;;;;;;9.07;1.70;;;23.00;43.00;;;;;;10461809;28;20056;-54
2024/02/03 23:47:09;;;;;;;6.10;1.80;;;23.10;42.90;;;;;;10466895;28;20068;-54
2024/02/03 23:52:10;;;;;;;6.55;1.95;;;23.10;42.80;;;;;;10463585;28;20426;-53
2024/02/03 23:57:12;;;;;;;5.18;1.58;;;23.10;42.80;;;;;;10451386;28;20156;-57
